createdAt,value
2018-05-02T15:10:31.647Z,24.30
2018-05-02T15:12:58.781Z,24.30
2018-05-02T15:15:25.384Z,24.30
2018-05-02T15:17:51.853Z,24.20
2018-05-02T15:20:18.625Z,24.10
2018-05-02T15:22:46.013Z,24.20
2018-05-02T15:25:12.762Z,24.20
2018-05-02T15:27:39.673Z,24.20
2018-05-02T15:30:06.963Z,24.20
2018-05-02T15:32:33.849Z,24.20
2018-05-02T15:35:00.463Z,24.20
2018-05-02T15:37:27.957Z,24.10
2018-05-02T15:39:54.633Z,24.10
2018-05-02T15:42:21.570Z,24.20
2018-05-02T15:44:48.957Z,24.00
2018-05-02T15:47:15.625Z,24.10
2018-05-02T15:49:42.440Z,24.00
2018-05-02T15:52:09.949Z,23.80
2018-05-02T15:54:36.620Z,23.80
2018-05-02T15:58:09.764Z,23.70
2018-05-02T16:00:38.630Z,23.70
2018-05-02T16:03:07.395Z,23.80
2018-05-02T16:09:44.739Z,22.50
2018-05-02T16:15:41.638Z,20.60
2018-05-02T17:10:10.762Z,21.80
2018-05-02T17:15:01.560Z,21.90
2018-05-02T17:17:31.795Z,22.00
2018-05-02T17:20:02.553Z,22.10
2018-05-02T17:22:32.772Z,22.10
2018-05-02T17:25:02.630Z,22.00
2018-05-02T17:30:04.857Z,22.00
2018-05-02T17:32:34.643Z,21.80
2018-05-02T17:35:04.739Z,21.70
2018-05-02T17:37:35.492Z,21.70
2018-05-02T17:40:06.712Z,21.80
2018-05-02T17:42:37.535Z,21.80
2018-05-02T17:45:07.879Z,21.80
2018-05-02T17:47:37.629Z,21.80
2018-05-02T17:50:08.176Z,21.80
2018-05-02T18:01:39.641Z,21.70
2018-05-02T18:04:11.819Z,21.70
2018-05-02T18:06:41.667Z,21.70
2018-05-02T18:09:11.872Z,21.70
2018-05-02T18:11:41.650Z,21.80
2018-05-02T18:14:11.847Z,21.80
2018-05-02T18:16:42.619Z,21.90
2018-05-02T18:19:13.727Z,22.00
2018-05-02T18:21:43.648Z,22.00
2018-05-02T18:24:13.883Z,22.00
2018-05-02T18:26:43.655Z,22.10
2018-05-02T18:29:13.879Z,22.10
2018-05-02T18:32:47.729Z,22.20
2018-05-02T18:35:18.550Z,22.20
2018-05-02T18:37:48.786Z,22.20
2018-05-02T18:40:19.630Z,22.20
2018-05-02T18:46:56.590Z,23.10
2018-05-02T18:49:28.082Z,23.20
2018-05-02T18:51:58.915Z,23.30
2018-05-02T18:54:29.368Z,23.30
2018-05-02T18:56:59.426Z,23.30
2018-05-02T18:59:30.687Z,23.40
2018-05-02T19:02:00.817Z,23.40
2018-05-02T19:04:31.271Z,23.40
2018-05-02T19:07:01.703Z,23.40
2018-05-02T19:09:31.790Z,23.40
2018-05-02T19:12:02.631Z,23.50
2018-05-02T19:14:33.079Z,23.50
2018-05-02T19:17:03.175Z,23.50
2018-05-02T19:19:38.485Z,23.50
2018-05-02T19:22:09.656Z,23.50
2018-05-02T19:24:44.903Z,23.50
2018-05-02T19:27:16.364Z,23.50
2018-05-02T19:29:47.312Z,23.50
2018-05-02T19:32:23.279Z,23.50
2018-05-02T19:34:53.764Z,23.50
2018-05-02T19:37:24.371Z,23.50
2018-05-02T19:39:59.965Z,23.50
2018-05-02T19:56:00.045Z,23.50
2018-05-02T19:58:30.154Z,23.60
2018-05-02T20:14:33.026Z,23.50
2018-05-02T20:17:03.642Z,23.50
2018-05-02T20:19:34.271Z,23.50
2018-05-02T20:22:04.878Z,23.50
2018-05-02T20:24:36.275Z,23.50
2018-05-02T20:27:06.888Z,23.50
2018-05-02T20:29:37.529Z,23.50
2018-05-02T20:32:07.956Z,23.50
2018-05-02T20:34:38.594Z,23.50
2018-05-02T20:37:08.688Z,23.50
2018-05-02T20:39:39.559Z,23.50
2018-05-02T20:42:09.980Z,23.50
2018-05-02T20:44:40.630Z,23.50
2018-05-02T20:47:11.210Z,23.40
2018-05-02T20:49:42.616Z,23.50
2018-05-02T20:52:13.236Z,23.50
2018-05-02T20:54:43.431Z,23.50
2018-05-02T20:57:13.960Z,23.40
2018-05-02T20:59:44.595Z,23.50
2018-05-02T21:02:15.205Z,23.50
2018-05-02T21:04:46.429Z,23.40
2018-05-02T21:07:16.855Z,23.50
2018-05-02T21:09:47.500Z,23.40
2018-05-02T21:12:18.249Z,23.40
2018-05-02T21:14:48.910Z,23.40
2018-05-02T21:17:19.340Z,23.40
2018-05-02T21:19:49.983Z,23.40
2018-05-02T21:22:20.094Z,23.50
2018-05-02T21:24:50.526Z,23.40
2018-05-02T21:27:21.142Z,23.40
2018-05-02T21:29:51.594Z,23.40
2018-05-02T21:32:22.208Z,23.40
2018-05-02T21:34:52.308Z,23.40
2018-05-02T21:37:22.992Z,23.40
2018-05-02T21:39:53.621Z,23.40
2018-05-02T21:42:24.192Z,23.40
2018-05-02T21:44:54.287Z,23.40
2018-05-02T21:47:24.975Z,23.40
2018-05-02T21:49:55.870Z,23.40
2018-05-02T21:52:26.547Z,23.40
2018-05-02T21:54:57.966Z,23.40
2018-05-02T21:57:28.603Z,23.40
2018-05-02T21:59:58.719Z,23.40
2018-05-02T22:02:29.132Z,23.40
2018-05-02T22:04:59.778Z,23.30
2018-05-02T22:07:30.432Z,23.40
2018-05-02T22:10:01.041Z,23.40
2018-05-02T22:12:31.690Z,23.40
2018-05-02T22:15:02.126Z,23.40
2018-05-02T22:17:32.776Z,23.40
2018-05-02T22:20:03.191Z,23.30
2018-05-02T22:22:33.599Z,23.30
2018-05-02T22:25:04.238Z,23.40
2018-05-02T22:27:35.440Z,23.40
2018-05-02T22:30:05.395Z,23.30
2018-05-02T22:32:35.474Z,23.30
2018-05-02T22:35:05.871Z,23.30
2018-05-02T22:37:37.280Z,23.30
2018-05-02T22:40:07.894Z,23.30
2018-05-02T22:42:38.322Z,23.30
2018-05-02T22:45:09.159Z,23.30
2018-05-02T22:47:39.804Z,23.30
2018-05-02T22:50:10.447Z,23.30
2018-05-02T22:52:40.870Z,23.30
2018-05-02T22:55:12.116Z,23.30
2018-05-02T22:57:42.722Z,23.30
2018-05-02T23:00:12.839Z,23.30
2018-05-02T23:02:43.322Z,23.30
2018-05-02T23:05:14.078Z,23.30
2018-05-02T23:07:44.483Z,23.30
2018-05-02T23:10:14.936Z,23.30
2018-05-02T23:12:45.542Z,23.30
2018-05-02T23:15:16.181Z,23.30
2018-05-02T23:17:46.794Z,23.30
2018-05-02T23:20:17.268Z,23.30
2018-05-02T23:22:47.877Z,23.30
2018-05-02T23:25:18.386Z,23.30
2018-05-02T23:27:48.815Z,23.30
2018-05-02T23:30:19.451Z,23.40
2018-05-02T23:32:50.265Z,23.30
2018-05-02T23:35:20.696Z,23.30
2018-05-02T23:37:51.139Z,23.30
2018-05-02T23:40:21.766Z,23.30
2018-05-02T23:42:52.384Z,23.30
2018-05-02T23:45:22.839Z,23.30
2018-05-02T23:47:53.445Z,23.30
2018-05-02T23:50:24.079Z,23.30
2018-05-02T23:52:54.686Z,23.30
2018-05-02T23:55:26.090Z,23.30
2018-05-02T23:57:56.518Z,23.20
